Time;durP1;ratioP1;P1;durP2;ratioP2;P2;SDS_P1;SDS_P2;PMS_P1;PMS_P2;Temp;Humidity;BMP_temperature;BMP_pressure;BME280_temperature;BME280_humidity;BME280_pressure;Samples;Min_cycle;Max_cycle;Signal;HPM_P1;HPM_P2
2021/12/14 00:01:40;;;;;;;0.90;0.80;;;19.50;40.20;;;;;;5001745;28;20450;-63
2021/12/14 00:04:10;;;;;;;1.33;1.20;;;19.60;40.20;;;;;;4999398;28;20415;-62
2021/12/14 00:06:36;;;;;;;0.80;0.80;;;19.50;40.20;;;;;;5000266;28;20963;-62
2021/12/14 00:09:06;;;;;;;1.17;1.03;;;19.50;40.20;;;;;;4998654;28;20490;-63
2021/12/14 00:16:42;;;;;;;1.20;1.00;;;19.50;40.20;;;;;;5002247;28;20484;-62
2021/12/14 00:19:08;;;;;;;1.10;1.00;;;19.50;40.20;;;;;;5000575;28;20496;-63
2021/12/14 00:21:33;;;;;;;1.10;0.90;;;19.50;40.20;;;;;;5000649;28;20812;-63
2021/12/14 00:24:09;;;;;;;1.00;0.90;;;19.50;40.30;;;;;;5000219;28;20654;-62
2021/12/14 00:26:45;;;;;;;2.00;0.90;;;19.50;41.00;;;;;;5000273;28;20224;-62
2021/12/14 00:29:18;;;;;;;1.13;1.03;;;19.50;40.20;;;;;;5001985;28;20625;-62
2021/12/14 00:31:44;;;;;;;1.23;1.13;;;19.50;40.20;;;;;;5004570;28;20450;-62
2021/12/14 00:34:36;;;;;;;1.50;1.13;;;19.50;40.20;;;;;;5001700;28;20449;-62
2021/12/14 00:38:00;;;;;;;1.00;0.90;;;19.50;40.20;;;;;;4998231;28;20446;-62
2021/12/14 00:40:33;;;;;;;1.17;1.00;;;19.50;40.20;;;;;;5001822;28;20499;-62
2021/12/14 00:43:00;;;;;;;1.20;0.90;;;19.50;40.20;;;;;;5004951;28;20457;-62
2021/12/14 00:45:28;;;;;;;1.30;1.00;;;19.50;40.30;;;;;;4998737;28;21384;-64
2021/12/14 00:47:55;;;;;;;2.13;1.00;;;19.50;40.30;;;;;;5002641;28;20513;-64
2021/12/14 00:50:22;;;;;;;0.90;0.80;;;19.50;40.20;;;;;;4998508;28;20825;-63
2021/12/14 00:52:48;;;;;;;2.07;1.00;;;19.50;40.30;;;;;;4997653;28;20450;-63
2021/12/14 00:55:19;;;;;;;1.10;1.00;;;19.50;40.20;;;;;;5001000;28;20504;-63
2021/12/14 00:57:45;;;;;;;2.30;0.80;;;19.50;40.30;;;;;;5002475;28;20235;-62
2021/12/14 01:00:15;;;;;;;1.10;0.80;;;19.50;40.30;;;;;;5002948;28;20474;-62
2021/12/14 01:02:41;;;;;;;1.10;1.00;;;19.50;40.20;;;;;;5000088;28;20219;-62
2021/12/14 01:05:13;;;;;;;1.40;0.70;;;19.50;40.30;;;;;;5005218;28;20461;-62
2021/12/14 01:07:38;;;;;;;1.23;1.03;;;19.50;40.30;;;;;;4997343;28;20449;-62
2021/12/14 01:10:16;;;;;;;1.00;0.90;;;19.50;40.30;;;;;;4998773;28;20453;-62
2021/12/14 01:12:51;;;;;;;1.00;0.90;;;19.50;40.20;;;;;;4999994;28;20219;-63
2021/12/14 01:15:50;;;;;;;1.10;1.00;;;19.50;40.30;;;;;;5001368;28;20485;-62
2021/12/14 01:18:34;;;;;;;1.03;0.90;;;19.50;40.30;;;;;;4999054;28;20466;-62
2021/12/14 01:21:17;;;;;;;0.80;0.80;;;19.50;40.20;;;;;;4999070;28;20437;-62
2021/12/14 01:23:45;;;;;;;1.00;0.90;;;19.50;40.30;;;;;;4998114;28;20458;-62
2021/12/14 01:26:16;;;;;;;1.00;0.80;;;19.50;40.30;;;;;;4999813;28;20451;-62
2021/12/14 01:28:44;;;;;;;1.20;1.00;;;19.50;40.30;;;;;;5000556;28;20535;-62
2021/12/14 01:34:32;;;;;;;1.07;0.97;;;19.50;40.30;;;;;;4961024;28;20459;-62
2021/12/14 01:37:03;;;;;;;1.00;0.90;;;19.50;40.30;;;;;;4990487;28;20570;-62
2021/12/14 01:42:06;;;;;;;1.00;0.90;;;19.50;40.30;;;;;;4998412;28;20809;-62
2021/12/14 01:44:39;;;;;;;0.90;0.90;;;19.50;40.30;;;;;;4998436;28;20437;-62
2021/12/14 01:47:10;;;;;;;1.10;1.00;;;19.50;40.30;;;;;;5000450;28;20935;-62
2021/12/14 01:49:36;;;;;;;0.90;0.90;;;19.50;40.30;;;;;;4999706;28;20516;-62
2021/12/14 01:52:14;;;;;;;0.87;0.87;;;19.50;40.30;;;;;;5001202;28;20425;-62
2021/12/14 01:54:45;;;;;;;1.27;0.80;;;19.50;40.30;;;;;;5000738;28;20420;-63
2021/12/14 01:57:14;;;;;;;0.80;0.80;;;19.50;40.30;;;;;;5002442;28;20454;-62
2021/12/14 01:59:43;;;;;;;0.83;0.80;;;19.50;40.30;;;;;;4998453;28;20473;-62
2021/12/14 02:02:31;;;;;;;0.87;0.87;;;19.50;40.30;;;;;;4999596;28;20423;-63
2021/12/14 02:05:06;;;;;;;1.20;1.10;;;19.50;40.30;;;;;;4998092;28;20962;-62
2021/12/14 02:07:32;;;;;;;0.93;0.90;;;19.50;40.30;;;;;;4997503;28;20514;-62
2021/12/14 02:10:06;;;;;;;0.83;0.83;;;19.50;40.30;;;;;;4997810;28;20454;-62
2021/12/14 02:12:32;;;;;;;1.80;1.20;;;19.50;40.30;;;;;;4994786;28;20454;-62
2021/12/14 02:15:09;;;;;;;1.03;0.93;;;19.50;40.30;;;;;;4998756;28;20931;-62
2021/12/14 02:17:39;;;;;;;2.10;1.00;;;19.50;40.30;;;;;;5000485;28;20255;-62
2021/12/14 02:20:07;;;;;;;1.03;0.80;;;19.50;40.30;;;;;;5000140;28;20909;-62
2021/12/14 02:22:33;;;;;;;1.00;0.90;;;19.50;41.10;;;;;;5001612;28;20885;-63
2021/12/14 02:24:58;;;;;;;1.10;1.00;;;19.50;40.30;;;;;;5003714;28;20482;-62
2021/12/14 02:27:32;;;;;;;1.00;0.90;;;19.50;40.30;;;;;;4998925;28;20216;-62
2021/12/14 02:30:04;;;;;;;0.90;0.90;;;19.50;40.30;;;;;;4999081;28;20632;-62
2021/12/14 02:32:30;;;;;;;1.30;1.00;;;19.50;40.30;;;;;;5002992;28;20427;-62
2021/12/14 02:35:00;;;;;;;1.00;0.90;;;19.50;40.30;;;;;;4999974;28;20434;-62
2021/12/14 02:37:52;;;;;;;1.10;1.00;;;19.50;40.20;;;;;;5003670;28;20627;-62
2021/12/14 02:40:53;;;;;;;1.43;1.03;;;19.50;40.20;;;;;;4999410;28;20462;-62
2021/12/14 02:43:36;;;;;;;1.37;1.10;;;19.50;40.30;;;;;;4997489;28;20609;-61
2021/12/14 02:46:24;;;;;;;1.20;1.00;;;19.50;40.30;;;;;;4998528;28;20782;-62
2021/12/14 02:48:54;;;;;;;1.70;0.77;;;19.50;40.20;;;;;;5001076;28;20475;-62
2021/12/14 02:51:28;;;;;;;1.23;1.00;;;19.50;40.30;;;;;;4999844;28;20445;-62
2021/12/14 02:54:04;;;;;;;1.20;1.10;;;19.50;40.30;;;;;;4999403;28;21158;-62
2021/12/14 02:56:32;;;;;;;1.03;0.93;;;19.50;40.30;;;;;;5002247;28;20445;-62
2021/12/14 02:59:05;;;;;;;1.10;1.00;;;19.50;40.20;;;;;;4999287;28;20909;-61
2021/12/14 03:01:32;;;;;;;1.10;1.00;;;19.50;40.20;;;;;;5004939;28;20970;-61
2021/12/14 03:04:03;;;;;;;0.90;0.80;;;19.50;40.20;;;;;;5003834;28;20554;-62
2021/12/14 03:06:45;;;;;;;1.10;0.80;;;19.50;40.30;;;;;;5000435;28;20516;-62
2021/12/14 03:09:33;;;;;;;1.10;0.90;;;19.50;40.30;;;;;;5002435;28;21199;-62
2021/12/14 03:12:09;;;;;;;1.10;1.00;;;19.50;40.30;;;;;;5006273;28;20764;-61
2021/12/14 03:14:36;;;;;;;0.97;0.97;;;19.50;40.30;;;;;;5003805;28;20532;-61
2021/12/14 03:17:02;;;;;;;1.67;0.90;;;19.50;40.30;;;;;;5003720;28;20446;-61
2021/12/14 03:19:28;;;;;;;0.80;0.80;;;19.50;40.30;;;;;;5004815;28;20436;-61
2021/12/14 03:21:54;;;;;;;0.80;0.80;;;19.50;41.10;;;;;;5001364;28;20463;-62
2021/12/14 03:24:21;;;;;;;1.50;0.90;;;19.50;40.20;;;;;;5003037;28;20227;-62
2021/12/14 03:26:51;;;;;;;1.13;1.03;;;19.50;40.30;;;;;;5003445;28;20674;-61
2021/12/14 03:29:24;;;;;;;1.10;1.00;;;19.50;40.30;;;;;;5000941;28;20435;-61
2021/12/14 03:31:53;;;;;;;1.00;0.90;;;19.50;40.30;;;;;;5002947;28;20451;-62
2021/12/14 03:34:33;;;;;;;1.10;1.00;;;19.50;40.30;;;;;;5003882;28;20452;-61
2021/12/14 03:37:01;;;;;;;0.80;0.80;;;19.50;40.30;;;;;;4999149;28;20446;-61
2021/12/14 03:39:31;;;;;;;1.20;1.10;;;19.50;40.30;;;;;;5000655;28;20508;-61
2021/12/14 03:42:07;;;;;;;1.67;1.00;;;19.50;40.30;;;;;;5000975;28;20496;-62
2021/12/14 03:44:37;;;;;;;1.03;0.93;;;19.50;40.30;;;;;;5005731;28;20569;-61
2021/12/14 03:47:23;;;;;;;1.27;1.17;;;19.50;40.30;;;;;;5000911;28;20454;-61
2021/12/14 03:50:03;;;;;;;0.80;0.80;;;19.50;40.30;;;;;;5007627;28;20461;-61
2021/12/14 03:52:32;;;;;;;0.97;0.90;;;19.50;40.30;;;;;;5001944;28;20457;-61
2021/12/14 03:55:00;;;;;;;1.10;1.00;;;19.50;40.30;;;;;;5001472;28;20533;-62
2021/12/14 03:57:26;;;;;;;1.07;1.00;;;19.50;40.40;;;;;;5000380;28;20887;-62
2021/12/14 03:59:52;;;;;;;1.10;1.00;;;19.50;40.30;;;;;;5000187;28;20528;-61
2021/12/14 04:02:19;;;;;;;0.83;0.80;;;19.50;40.30;;;;;;5008352;28;20425;-62
2021/12/14 04:05:01;;;;;;;0.97;0.90;;;19.50;40.30;;;;;;4998488;28;20473;-62
2021/12/14 04:07:27;;;;;;;1.00;0.90;;;19.50;40.30;;;;;;5003389;28;20449;-61
2021/12/14 04:09:53;;;;;;;1.00;0.90;;;19.50;40.30;;;;;;5001998;28;20462;-61
2021/12/14 04:12:20;;;;;;;1.23;1.00;;;19.50;40.30;;;;;;5001105;28;20484;-61
2021/12/14 04:14:53;;;;;;;0.80;0.80;;;19.50;40.30;;;;;;4998727;28;20500;-61
2021/12/14 04:17:22;;;;;;;0.80;0.73;;;19.50;40.40;;;;;;5007088;28;20529;-61
2021/12/14 04:19:48;;;;;;;0.90;0.77;;;19.50;40.30;;;;;;5000218;28;20490;-62
2021/12/14 04:22:20;;;;;;;1.10;1.00;;;19.50;40.30;;;;;;5001216;28;20453;-62
2021/12/14 04:24:51;;;;;;;1.20;1.10;;;19.50;40.30;;;;;;5002243;28;20458;-61
2021/12/14 04:27:20;;;;;;;0.93;0.93;;;19.50;40.30;;;;;;5000276;28;20450;-61
2021/12/14 04:29:46;;;;;;;1.07;0.97;;;19.50;40.30;;;;;;4997205;28;20493;-61
2021/12/14 04:32:14;;;;;;;1.00;0.90;;;19.50;40.30;;;;;;5000752;28;20481;-61
2021/12/14 04:34:41;;;;;;;0.90;0.90;;;19.50;40.30;;;;;;5002444;28;20244;-61
2021/12/14 04:37:08;;;;;;;1.07;0.97;;;19.50;40.30;;;;;;5001343;28;20411;-61
2021/12/14 04:39:46;;;;;;;1.30;1.20;;;19.40;40.20;;;;;;5002827;28;20485;-61
2021/12/14 04:53:41;;;;;;;0.90;0.90;;;19.50;40.30;;;;;;5004307;28;20449;-60
2021/12/14 04:56:10;;;;;;;1.10;0.90;;;19.50;40.30;;;;;;5003275;28;20445;-61
2021/12/14 04:58:44;;;;;;;0.87;0.80;;;19.50;40.30;;;;;;4998461;28;21046;-61
2021/12/14 05:01:12;;;;;;;1.20;1.10;;;19.50;40.40;;;;;;5002110;28;20417;-61
2021/12/14 05:03:53;;;;;;;0.80;0.80;;;19.50;40.40;;;;;;5002901;28;20782;-61
2021/12/14 05:06:25;;;;;;;1.03;0.93;;;19.50;40.30;;;;;;4999901;28;20501;-61
2021/12/14 05:12:10;;;;;;;1.00;0.90;;;19.50;40.30;;;;;;4968904;28;20447;-61
2021/12/14 05:14:38;;;;;;;1.20;1.00;;;19.50;40.30;;;;;;4968268;28;20449;-60
2021/12/14 05:17:11;;;;;;;0.97;0.83;;;19.50;40.40;;;;;;4986638;28;20461;-61
2021/12/14 05:19:40;;;;;;;1.20;1.10;;;19.50;41.10;;;;;;4999157;28;20996;-62
2021/12/14 05:22:13;;;;;;;1.10;0.90;;;19.50;40.30;;;;;;5003612;28;20449;-61
2021/12/14 05:24:41;;;;;;;1.77;1.27;;;19.50;40.20;;;;;;4997898;28;20472;-60
2021/12/14 05:27:09;;;;;;;1.10;1.00;;;19.50;40.20;;;;;;5000699;28;20442;-60
2021/12/14 05:29:39;;;;;;;0.80;0.80;;;19.50;40.20;;;;;;5000578;28;20532;-60
2021/12/14 05:32:06;;;;;;;0.90;0.80;;;19.50;40.20;;;;;;5001628;28;20449;-60
2021/12/14 05:34:33;;;;;;;1.00;0.83;;;19.50;40.20;;;;;;5002069;28;20442;-60
2021/12/14 05:36:59;;;;;;;0.87;0.87;;;19.50;40.20;;;;;;4996335;28;20943;-60
2021/12/14 05:44:41;;;;;;;0.90;0.80;;;19.50;40.10;;;;;;5000991;28;20478;-60
2021/12/14 05:47:11;;;;;;;1.17;1.07;;;19.60;40.20;;;;;;5003130;28;20450;-60
2021/12/14 05:49:40;;;;;;;0.80;0.80;;;19.60;40.20;;;;;;5001076;28;20461;-62
2021/12/14 05:52:22;;;;;;;0.80;0.80;;;19.60;40.20;;;;;;4998964;28;20445;-63
2021/12/14 05:54:48;;;;;;;1.00;0.90;;;19.60;40.20;;;;;;5000342;28;20436;-64
2021/12/14 05:57:18;;;;;;;2.20;0.90;;;19.60;40.20;;;;;;5003713;28;20792;-63
2021/12/14 05:59:45;;;;;;;0.90;0.90;;;19.60;40.20;;;;;;5003416;28;20453;-65
2021/12/14 06:02:11;;;;;;;1.00;0.90;;;19.60;40.20;;;;;;5001624;28;20449;-64
2021/12/14 06:04:46;;;;;;;2.00;0.90;;;19.60;40.10;;;;;;5004277;28;20457;-63
2021/12/14 06:07:12;;;;;;;1.53;1.07;;;19.60;40.10;;;;;;4999304;28;20748;-64
2021/12/14 06:09:44;;;;;;;1.10;0.90;;;19.60;40.10;;;;;;5001290;28;20417;-63
2021/12/14 06:12:16;;;;;;;1.00;0.90;;;19.60;40.10;;;;;;4994935;28;20548;-63
2021/12/14 06:14:51;;;;;;;1.07;0.97;;;19.60;40.10;;;;;;5000551;28;20460;-63
2021/12/14 06:17:40;;;;;;;1.40;1.00;;;19.60;40.50;;;;;;5000911;28;20448;-63
2021/12/14 06:20:08;;;;;;;2.40;1.10;;;19.60;40.10;;;;;;4999829;28;20450;-63
2021/12/14 06:22:35;;;;;;;1.20;1.00;;;19.60;40.10;;;;;;4997918;28;20459;-63
2021/12/14 06:25:07;;;;;;;1.10;1.00;;;19.70;40.20;;;;;;4998744;28;20454;-63
2021/12/14 06:27:33;;;;;;;1.00;0.90;;;19.60;40.00;;;;;;5000349;28;20433;-64
2021/12/14 06:30:08;;;;;;;1.57;0.70;;;19.70;40.20;;;;;;4998490;28;20791;-62
2021/12/14 06:32:39;;;;;;;1.30;1.20;;;19.70;40.20;;;;;;4996024;28;20442;-62
2021/12/14 06:35:10;;;;;;;1.40;1.00;;;19.60;40.10;;;;;;5003316;28;20458;-64
2021/12/14 06:40:45;;;;;;;1.30;0.90;;;19.70;40.20;;;;;;5003027;28;20468;-62
2021/12/14 06:43:20;;;;;;;2.20;1.03;;;19.70;40.20;;;;;;4999937;28;20450;-65
2021/12/14 06:45:51;;;;;;;1.27;1.10;;;19.70;40.10;;;;;;5005611;28;20420;-65
2021/12/14 06:48:21;;;;;;;1.10;1.00;;;19.70;40.10;;;;;;4999173;28;20457;-66
2021/12/14 06:50:50;;;;;;;2.00;1.00;;;19.70;40.10;;;;;;5005727;28;20445;-66
2021/12/14 06:53:18;;;;;;;1.30;1.00;;;19.70;40.10;;;;;;5004105;28;20475;-66
2021/12/14 06:55:44;;;;;;;1.10;1.00;;;19.70;40.10;;;;;;5001816;28;20449;-65
2021/12/14 06:58:17;;;;;;;1.07;0.97;;;19.70;40.00;;;;;;5004506;28;20511;-65
2021/12/14 07:01:10;;;;;;;1.00;0.90;;;19.70;40.00;;;;;;5001150;28;20869;-65
2021/12/14 07:03:43;;;;;;;0.83;0.83;;;19.70;40.00;;;;;;5004314;28;20455;-65
2021/12/14 07:06:12;;;;;;;1.77;1.00;;;19.70;40.00;;;;;;5006470;28;20464;-64
2021/12/14 07:08:39;;;;;;;1.10;1.00;;;19.70;40.00;;;;;;5002228;28;20453;-65
2021/12/14 07:11:05;;;;;;;2.30;1.07;;;19.70;40.00;;;;;;5001620;28;20447;-64
2021/12/14 07:13:38;;;;;;;1.37;1.20;;;19.80;40.10;;;;;;4998744;28;20458;-64
2021/12/14 07:16:19;;;;;;;1.40;1.10;;;19.70;40.10;;;;;;5002677;28;20243;-64
2021/12/14 07:18:45;;;;;;;3.50;1.47;;;19.70;40.00;;;;;;5003879;28;20785;-64
2021/12/14 07:21:11;;;;;;;1.27;1.17;;;19.70;40.10;;;;;;5002895;28;20481;-64
2021/12/14 07:23:37;;;;;;;1.13;1.03;;;19.70;40.10;;;;;;5008393;28;20510;-64
2021/12/14 07:26:11;;;;;;;1.63;1.10;;;19.70;40.10;;;;;;5003849;28;20685;-64
2021/12/14 07:28:40;;;;;;;1.17;1.07;;;19.70;40.10;;;;;;4999546;28;20445;-64
2021/12/14 07:31:19;;;;;;;1.20;1.10;;;19.70;40.10;;;;;;5005227;28;20457;-64
2021/12/14 07:33:54;;;;;;;1.40;1.30;;;19.70;40.10;;;;;;5002326;28;20449;-64
2021/12/14 07:36:26;;;;;;;1.90;1.10;;;19.70;40.10;;;;;;5004070;28;20449;-63
2021/12/14 07:38:53;;;;;;;1.07;0.97;;;19.70;40.20;;;;;;5003290;28;20983;-64
2021/12/14 07:41:46;;;;;;;1.30;1.20;;;19.70;40.20;;;;;;5001550;28;20454;-64
2021/12/14 07:44:19;;;;;;;1.10;1.00;;;19.70;40.10;;;;;;4997436;28;20453;-64
2021/12/14 07:46:51;;;;;;;1.03;0.90;;;19.70;40.20;;;;;;5000329;28;20450;-63
2021/12/14 07:49:30;;;;;;;1.10;0.80;;;19.70;40.20;;;;;;5007000;28;20596;-64
2021/12/14 07:52:07;;;;;;;1.20;1.00;;;19.70;40.20;;;;;;5005639;28;20487;-63
2021/12/14 07:54:55;;;;;;;1.43;0.93;;;19.70;40.30;;;;;;5003423;28;20536;-64
2021/12/14 07:57:34;;;;;;;1.67;1.40;;;19.70;40.20;;;;;;5004403;28;20461;-64
2021/12/14 08:00:15;;;;;;;1.13;1.03;;;19.70;40.30;;;;;;5009179;28;20870;-63
2021/12/14 08:02:45;;;;;;;1.13;1.03;;;19.70;40.30;;;;;;5005869;28;20465;-63
2021/12/14 08:05:19;;;;;;;0.97;0.87;;;19.70;40.30;;;;;;4997652;28;20470;-63
2021/12/14 08:07:48;;;;;;;1.73;1.30;;;19.70;40.30;;;;;;5003234;28;20456;-65
2021/12/14 08:10:21;;;;;;;1.33;1.07;;;19.70;40.30;;;;;;5001250;28;20499;-66
2021/12/14 08:13:08;;;;;;;1.50;1.00;;;19.70;40.30;;;;;;5002887;28;20455;-66
2021/12/14 08:15:41;;;;;;;1.10;1.00;;;19.70;40.30;;;;;;5003062;28;20450;-65
2021/12/14 08:18:18;;;;;;;1.57;0.90;;;19.70;40.20;;;;;;5001745;28;20480;-65
2021/12/14 08:20:51;;;;;;;1.47;1.00;;;19.70;40.10;;;;;;4998686;28;20478;-64
2021/12/14 08:23:22;;;;;;;0.87;0.80;;;19.70;40.10;;;;;;5004780;28;20469;-64
2021/12/14 08:25:49;;;;;;;1.20;1.10;;;19.70;40.20;;;;;;5005168;28;20450;-64
2021/12/14 08:28:17;;;;;;;1.30;0.90;;;19.70;40.10;;;;;;5005370;28;20452;-65
2021/12/14 08:30:58;;;;;;;0.80;0.80;;;19.70;40.10;;;;;;5002828;28;20551;-65
2021/12/14 08:33:26;;;;;;;1.20;1.10;;;19.80;40.20;;;;;;4996843;28;20454;-64
2021/12/14 08:35:56;;;;;;;1.07;0.90;;;19.70;40.10;;;;;;5002078;28;20457;-64
2021/12/14 08:38:22;;;;;;;1.00;0.90;;;19.70;40.10;;;;;;5004337;28;20465;-64
2021/12/14 08:40:57;;;;;;;1.53;1.00;;;19.80;40.20;;;;;;5007004;28;20462;-64
2021/12/14 08:43:31;;;;;;;1.30;1.20;;;19.80;40.10;;;;;;5006106;28;20451;-64
2021/12/14 08:46:04;;;;;;;1.10;1.00;;;19.80;40.20;;;;;;5007171;28;20452;-63
2021/12/14 08:48:37;;;;;;;1.23;1.17;;;19.80;40.10;;;;;;5000417;28;20472;-63
2021/12/14 08:51:14;;;;;;;1.20;1.10;;;19.80;40.10;;;;;;4998945;28;20438;-64
2021/12/14 08:53:45;;;;;;;1.13;1.00;;;19.80;40.10;;;;;;4999858;28;20795;-63
2021/12/14 08:56:12;;;;;;;2.00;1.50;;;19.80;40.20;;;;;;5004551;28;20466;-63
2021/12/14 08:58:39;;;;;;;1.10;1.00;;;19.80;40.10;;;;;;5002930;28;20445;-63
2021/12/14 09:01:15;;;;;;;1.10;1.00;;;19.80;40.10;;;;;;5003210;28;20454;-64
2021/12/14 09:03:55;;;;;;;1.27;1.17;;;19.80;40.10;;;;;;4999661;28;20811;-63
2021/12/14 09:06:24;;;;;;;1.10;1.00;;;19.80;40.10;;;;;;5003342;28;20511;-63
2021/12/14 09:08:51;;;;;;;2.30;1.17;;;19.80;40.10;;;;;;5001930;28;20450;-63
2021/12/14 09:11:23;;;;;;;0.87;0.87;;;19.80;40.00;;;;;;5000342;28;20457;-64
2021/12/14 09:13:49;;;;;;;1.03;0.93;;;19.80;40.10;;;;;;5002793;28;20458;-63
2021/12/14 09:16:19;;;;;;;1.03;0.93;;;19.80;40.10;;;;;;5001686;28;20450;-62
2021/12/14 09:18:51;;;;;;;1.20;1.00;;;19.80;40.00;;;;;;5002793;28;20485;-63
2021/12/14 09:21:22;;;;;;;1.00;0.90;;;19.80;40.10;;;;;;5001646;28;20457;-63
2021/12/14 09:23:58;;;;;;;1.30;1.03;;;19.80;40.10;;;;;;5000313;28;20551;-62
2021/12/14 09:26:27;;;;;;;1.10;1.00;;;19.80;40.00;;;;;;5003541;28;20485;-62
2021/12/14 09:28:53;;;;;;;1.10;1.00;;;19.80;40.00;;;;;;5001520;28;20437;-63
2021/12/14 09:31:26;;;;;;;1.20;1.10;;;19.80;40.00;;;;;;5001864;28;20940;-62
2021/12/14 09:33:55;;;;;;;0.90;0.90;;;19.80;40.10;;;;;;5000603;28;20461;-63
2021/12/14 09:36:21;;;;;;;0.80;0.80;;;19.80;40.10;;;;;;5002303;28;20445;-64
2021/12/14 09:38:57;;;;;;;0.90;0.90;;;19.70;40.00;;;;;;5001080;28;20835;-64
2021/12/14 09:41:31;;;;;;;1.10;1.00;;;19.80;40.00;;;;;;4999437;28;24904;-64
2021/12/14 09:43:57;;;;;;;1.10;1.00;;;19.80;40.10;;;;;;5002246;28;20431;-63
2021/12/14 09:46:24;;;;;;;1.27;1.17;;;19.80;40.00;;;;;;5002754;28;20449;-63
2021/12/14 09:48:53;;;;;;;1.03;0.93;;;19.80;40.00;;;;;;5000723;28;20472;-63
2021/12/14 09:51:25;;;;;;;1.50;1.40;;;19.80;40.00;;;;;;4998578;28;20449;-63
2021/12/14 09:53:55;;;;;;;1.20;1.10;;;19.80;40.00;;;;;;4997059;28;20527;-63
2021/12/14 09:56:25;;;;;;;1.90;1.00;;;19.80;40.00;;;;;;5001863;28;20512;-63
2021/12/14 09:58:58;;;;;;;1.30;1.20;;;19.80;40.00;;;;;;5003017;28;20505;-62
2021/12/14 10:01:26;;;;;;;1.47;1.37;;;19.80;40.00;;;;;;5002733;28;20843;-63
2021/12/14 10:03:56;;;;;;;1.27;1.17;;;19.80;40.00;;;;;;5003949;28;20556;-63
2021/12/14 10:06:28;;;;;;;1.30;1.20;;;19.80;40.00;;;;;;4996933;28;20462;-62
2021/12/14 10:09:02;;;;;;;1.10;1.00;;;19.80;40.00;;;;;;4997643;28;20428;-62
2021/12/14 10:11:47;;;;;;;1.10;1.00;;;19.80;40.00;;;;;;5001740;28;20445;-62
2021/12/14 10:14:15;;;;;;;2.00;1.27;;;19.80;40.00;;;;;;4999055;28;20512;-64
2021/12/14 10:16:41;;;;;;;1.23;1.13;;;19.80;40.00;;;;;;5000541;28;20480;-63
2021/12/14 10:19:12;;;;;;;1.40;1.30;;;19.80;40.00;;;;;;5004404;28;20894;-62
2021/12/14 10:21:49;;;;;;;1.27;1.10;;;19.80;40.00;;;;;;4998189;28;20941;-61
2021/12/14 10:24:15;;;;;;;1.40;1.30;;;19.70;39.90;;;;;;4997437;28;20445;-61
2021/12/14 10:26:45;;;;;;;1.07;0.97;;;19.70;40.00;;;;;;5001867;28;20456;-61
2021/12/14 10:29:12;;;;;;;1.30;1.20;;;19.80;40.00;;;;;;5003640;28;20461;-61
2021/12/14 10:31:44;;;;;;;0.90;0.90;;;19.70;40.10;;;;;;4999461;28;20424;-61
2021/12/14 10:34:22;;;;;;;1.17;1.07;;;19.70;40.00;;;;;;4999276;28;20472;-61
2021/12/14 10:36:58;;;;;;;2.30;1.23;;;19.70;40.00;;;;;;5002894;28;20449;-62
2021/12/14 10:44:43;;;;;;;0.90;0.90;;;19.70;40.00;;;;;;4998484;28;20480;-61
2021/12/14 10:47:12;;;;;;;1.27;1.17;;;19.70;40.10;;;;;;4999685;28;20442;-61
2021/12/14 10:49:38;;;;;;;1.33;1.23;;;19.70;40.00;;;;;;5005849;28;20443;-61
2021/12/14 10:52:10;;;;;;;1.20;1.10;;;19.70;40.10;;;;;;5000294;28;20453;-61
2021/12/14 10:54:37;;;;;;;1.20;1.10;;;19.70;40.00;;;;;;4998090;28;20481;-63
2021/12/14 10:57:12;;;;;;;1.17;1.07;;;19.70;40.10;;;;;;5006249;28;20460;-64
2021/12/14 10:59:42;;;;;;;1.30;1.20;;;19.70;40.10;;;;;;5000595;28;20472;-63
2021/12/14 11:02:08;;;;;;;1.40;1.30;;;19.70;40.10;;;;;;4997648;28;21038;-63
2021/12/14 11:04:41;;;;;;;1.30;1.20;;;19.70;40.10;;;;;;5001703;28;20456;-63
2021/12/14 11:07:14;;;;;;;1.30;1.20;;;19.70;40.10;;;;;;5001122;28;20978;-63
2021/12/14 11:09:42;;;;;;;1.20;1.10;;;19.70;40.10;;;;;;5000982;28;20475;-62
2021/12/14 11:12:26;;;;;;;1.20;1.10;;;19.70;40.10;;;;;;5001175;28;20461;-62
2021/12/14 11:14:56;;;;;;;1.37;1.03;;;19.70;40.10;;;;;;5002088;28;20461;-62
2021/12/14 11:20:15;;;;;;;1.20;1.10;;;19.70;40.10;;;;;;5001508;28;20464;-61
2021/12/14 11:23:02;;;;;;;4.33;1.43;;;19.70;40.20;;;;;;5001496;28;21013;-61
2021/12/14 11:25:30;;;;;;;1.97;1.87;;;19.70;40.20;;;;;;5004296;28;20481;-61
2021/12/14 11:28:12;;;;;;;1.50;1.40;;;19.70;40.20;;;;;;5001302;28;20449;-63
2021/12/14 11:30:49;;;;;;;1.30;1.20;;;19.70;40.20;;;;;;5004514;28;20465;-61
2021/12/14 11:33:22;;;;;;;1.17;1.07;;;19.70;40.20;;;;;;5013903;28;20782;-61
2021/12/14 11:36:15;;;;;;;1.40;1.30;;;19.70;40.20;;;;;;5001582;28;20467;-61
2021/12/14 11:38:47;;;;;;;1.37;1.27;;;19.70;40.20;;;;;;5000812;28;20526;-61
2021/12/14 11:41:21;;;;;;;1.30;1.20;;;19.70;40.20;;;;;;5004565;28;21128;-61
2021/12/14 11:43:54;;;;;;;1.53;1.27;;;19.70;40.20;;;;;;5004793;28;20462;-62
2021/12/14 11:46:20;;;;;;;1.33;1.23;;;19.70;40.20;;;;;;5006027;28;20473;-62
2021/12/14 11:48:46;;;;;;;1.33;1.23;;;19.70;40.30;;;;;;5002802;28;20485;-62
2021/12/14 11:51:12;;;;;;;1.93;1.40;;;19.70;40.30;;;;;;5000474;28;21036;-61
2021/12/14 11:53:46;;;;;;;2.17;1.50;;;19.70;40.30;;;;;;5001410;28;20256;-60
2021/12/14 11:56:16;;;;;;;1.63;1.40;;;19.70;40.30;;;;;;5000886;28;20224;-61
2021/12/14 11:58:44;;;;;;;1.43;1.33;;;19.70;40.30;;;;;;5003841;28;20514;-61
2021/12/14 12:01:12;;;;;;;1.60;1.20;;;19.70;40.30;;;;;;5002113;28;20456;-61
2021/12/14 12:03:42;;;;;;;3.07;1.53;;;19.70;40.40;;;;;;5003294;28;20473;-61
2021/12/14 12:06:35;;;;;;;1.70;1.60;;;19.70;40.30;;;;;;5002130;28;20477;-60
2021/12/14 12:09:35;;;;;;;1.50;1.40;;;19.70;40.40;;;;;;5001029;28;20459;-60
2021/12/14 12:12:03;;;;;;;2.37;1.37;;;19.70;40.40;;;;;;4997039;28;21038;-60
2021/12/14 12:14:44;;;;;;;1.67;1.30;;;19.70;40.40;;;;;;5005604;28;20774;-60
2021/12/14 12:17:16;;;;;;;1.50;1.40;;;19.70;40.40;;;;;;5002456;28;20458;-61
2021/12/14 12:20:02;;;;;;;1.37;1.27;;;19.70;40.40;;;;;;5004193;28;20481;-61
2021/12/14 12:22:36;;;;;;;1.80;1.43;;;19.70;40.40;;;;;;4998646;28;20491;-60
2021/12/14 12:25:06;;;;;;;1.23;1.13;;;19.70;40.40;;;;;;4998279;28;20453;-60
2021/12/14 12:27:45;;;;;;;1.70;1.60;;;19.70;40.40;;;;;;4999437;28;20477;-60
2021/12/14 12:30:35;;;;;;;1.60;1.40;;;19.70;40.40;;;;;;5003408;28;20453;-60
2021/12/14 12:33:12;;;;;;;2.33;1.60;;;19.70;40.40;;;;;;5000988;28;20797;-60
2021/12/14 12:35:41;;;;;;;1.30;1.20;;;19.70;40.40;;;;;;5000242;28;20449;-60
2021/12/14 12:38:22;;;;;;;1.47;1.37;;;19.70;40.40;;;;;;4996663;28;20465;-61
2021/12/14 12:40:52;;;;;;;2.90;1.60;;;19.70;40.40;;;;;;4999786;28;20473;-61
2021/12/14 12:43:35;;;;;;;1.40;1.30;;;19.70;40.50;;;;;;4999032;28;20449;-60
2021/12/14 12:46:09;;;;;;;1.73;1.40;;;19.70;40.50;;;;;;5006030;28;20473;-60
2021/12/14 12:48:44;;;;;;;1.53;1.43;;;19.70;40.50;;;;;;5004143;28;20448;-60
2021/12/14 12:51:31;;;;;;;1.33;1.23;;;19.70;40.50;;;;;;5000270;28;20479;-60
2021/12/14 12:54:15;;;;;;;1.40;1.30;;;19.70;40.50;;;;;;5000916;28;20516;-60
2021/12/14 12:56:42;;;;;;;1.83;1.20;;;19.70;40.50;;;;;;5003654;28;20520;-61
2021/12/14 12:59:11;;;;;;;1.67;1.37;;;19.70;40.60;;;;;;5004395;28;20966;-61
2021/12/14 13:01:37;;;;;;;1.63;1.53;;;19.70;40.60;;;;;;5000282;28;21032;-61
2021/12/14 13:04:04;;;;;;;1.67;1.50;;;19.70;40.50;;;;;;5000583;28;20437;-61
2021/12/14 13:06:30;;;;;;;1.37;1.27;;;19.70;40.50;;;;;;5002860;28;20909;-60
2021/12/14 13:08:58;;;;;;;1.60;1.40;;;19.70;40.50;;;;;;4998152;28;20466;-61
2021/12/14 13:11:39;;;;;;;2.70;1.30;;;19.70;40.50;;;;;;5001007;28;20505;-61
2021/12/14 13:14:11;;;;;;;1.20;1.10;;;19.70;40.50;;;;;;4999886;28;20483;-60
2021/12/14 13:16:38;;;;;;;1.50;1.40;;;19.70;40.50;;;;;;5005661;28;20460;-60
2021/12/14 13:19:10;;;;;;;1.40;1.30;;;19.70;40.50;;;;;;4996767;28;21083;-61
2021/12/14 13:21:53;;;;;;;1.20;1.10;;;19.70;40.50;;;;;;4998895;28;21038;-60
2021/12/14 13:24:30;;;;;;;1.40;1.10;;;19.70;40.40;;;;;;5001020;28;20449;-60
2021/12/14 13:27:05;;;;;;;1.43;1.33;;;19.60;40.40;;;;;;5002266;28;20445;-60
2021/12/14 13:29:59;;;;;;;1.70;1.53;;;19.70;40.50;;;;;;4998431;28;20452;-60
2021/12/14 13:32:35;;;;;;;1.80;1.40;;;19.70;40.50;;;;;;4994381;28;20450;-60
2021/12/14 13:35:07;;;;;;;1.30;1.20;;;19.70;40.60;;;;;;4998390;28;20446;-60
2021/12/14 13:37:47;;;;;;;1.47;1.37;;;19.60;40.50;;;;;;4999553;28;20438;-60
2021/12/14 13:40:27;;;;;;;1.40;1.30;;;19.60;40.50;;;;;;5001015;28;20897;-61
2021/12/14 13:43:10;;;;;;;1.40;1.30;;;19.70;40.50;;;;;;5002760;28;20462;-60
2021/12/14 13:45:58;;;;;;;1.37;1.27;;;19.60;40.50;;;;;;4997324;28;20959;-60
2021/12/14 13:48:31;;;;;;;1.40;1.30;;;19.70;40.60;;;;;;4998898;28;20442;-60
2021/12/14 13:51:00;;;;;;;1.30;1.20;;;19.70;40.60;;;;;;5000975;28;20454;-59
2021/12/14 13:53:26;;;;;;;1.50;1.40;;;19.60;40.60;;;;;;5000451;28;20469;-60
2021/12/14 13:55:57;;;;;;;1.53;1.43;;;19.60;40.50;;;;;;5002246;28;21022;-60
2021/12/14 13:58:29;;;;;;;1.30;1.20;;;19.60;40.50;;;;;;4997150;28;20348;-61